sensor_id;sensor_type;location;lat;lon;timestamp;temperature;humidity
46590;DHT22;32313;48.722;9.362;2023-05-07T00:02:22;11.00;99.90
46590;DHT22;32313;48.722;9.362;2023-05-07T00:04:48;11.00;99.90
46590;DHT22;32313;48.722;9.362;2023-05-07T00:07:14;10.90;99.90
46590;DHT22;32313;48.722;9.362;2023-05-07T00:09:40;10.90;99.90
46590;DHT22;32313;48.722;9.362;2023-05-07T00:12:06;10.80;99.90
46590;DHT22;32313;48.722;9.362;2023-05-07T00:14:32;10.70;99.90
46590;DHT22;32313;48.722;9.362;2023-05-07T00:16:58;10.70;99.90
46590;DHT22;32313;48.722;9.362;2023-05-07T00:19:23;10.60;99.90
46590;DHT22;32313;48.722;9.362;2023-05-07T00:21:49;10.60;99.90
46590;DHT22;32313;48.722;9.362;2023-05-07T00:24:15;10.50;99.90
46590;DHT22;32313;48.722;9.362;2023-05-07T00:26:41;10.50;99.90
46590;DHT22;32313;48.722;9.362;2023-05-07T00:29:07;10.40;99.90
46590;DHT22;32313;48.722;9.362;2023-05-07T00:31:32;10.40;99.90
46590;DHT22;32313;48.722;9.362;2023-05-07T00:33:58;10.40;99.90
46590;DHT22;32313;48.722;9.362;2023-05-07T00:36:24;10.50;99.90
46590;DHT22;32313;48.722;9.362;2023-05-07T00:38:51;10.50;99.90
46590;DHT22;32313;48.722;9.362;2023-05-07T00:41:17;10.40;99.90
46590;DHT22;32313;48.722;9.362;2023-05-07T00:43:43;10.40;99.90
46590;DHT22;32313;48.722;9.362;2023-05-07T00:46:08;10.40;99.90
46590;DHT22;32313;48.722;9.362;2023-05-07T00:48:36;10.40;99.90
46590;DHT22;32313;48.722;9.362;2023-05-07T00:51:01;10.40;99.90
46590;DHT22;32313;48.722;9.362;2023-05-07T00:53:27;10.40;99.90
46590;DHT22;32313;48.722;9.362;2023-05-07T00:55:53;10.40;99.90
46590;DHT22;32313;48.722;9.362;2023-05-07T00:58:19;10.40;99.90
46590;DHT22;32313;48.722;9.362;2023-05-07T01:00:46;10.50;99.90
46590;DHT22;32313;48.722;9.362;2023-05-07T01:03:11;10.50;99.90
46590;DHT22;32313;48.722;9.362;2023-05-07T01:05:37;10.40;99.90
46590;DHT22;32313;48.722;9.362;2023-05-07T01:08:04;10.40;99.90
46590;DHT22;32313;48.722;9.362;2023-05-07T01:10:30;10.30;99.90
46590;DHT22;32313;48.722;9.362;2023-05-07T01:12:58;10.30;99.90
46590;DHT22;32313;48.722;9.362;2023-05-07T01:15:24;10.30;99.90
46590;DHT22;32313;48.722;9.362;2023-05-07T01:17:50;10.20;99.90
46590;DHT22;32313;48.722;9.362;2023-05-07T01:20:28;10.20;99.90
46590;DHT22;32313;48.722;9.362;2023-05-07T01:22:56;10.10;99.90
46590;DHT22;32313;48.722;9.362;2023-05-07T01:25:22;10.10;99.90
46590;DHT22;32313;48.722;9.362;2023-05-07T01:27:51;10.20;99.90
46590;DHT22;32313;48.722;9.362;2023-05-07T01:30:20;10.20;99.90
46590;DHT22;32313;48.722;9.362;2023-05-07T01:32:58;10.10;99.90
46590;DHT22;32313;48.722;9.362;2023-05-07T01:35:29;10.10;99.90
46590;DHT22;32313;48.722;9.362;2023-05-07T01:37:56;10.10;99.90
46590;DHT22;32313;48.722;9.362;2023-05-07T01:40:23;10.10;99.90
46590;DHT22;32313;48.722;9.362;2023-05-07T01:42:50;10.10;99.90
46590;DHT22;32313;48.722;9.362;2023-05-07T01:45:16;10.10;99.90
46590;DHT22;32313;48.722;9.362;2023-05-07T01:47:42;10.10;99.90
46590;DHT22;32313;48.722;9.362;2023-05-07T01:50:09;10.10;99.90
46590;DHT22;32313;48.722;9.362;2023-05-07T01:52:37;10.00;99.90
46590;DHT22;32313;48.722;9.362;2023-05-07T01:55:05;10.00;99.90
46590;DHT22;32313;48.722;9.362;2023-05-07T01:57:31;10.00;99.90
46590;DHT22;32313;48.722;9.362;2023-05-07T01:59:56;9.90;99.90
46590;DHT22;32313;48.722;9.362;2023-05-07T02:02:22;9.90;99.90
46590;DHT22;32313;48.722;9.362;2023-05-07T02:04:48;9.90;99.90
46590;DHT22;32313;48.722;9.362;2023-05-07T02:07:15;9.90;99.90
46590;DHT22;32313;48.722;9.362;2023-05-07T02:09:41;9.90;99.90
46590;DHT22;32313;48.722;9.362;2023-05-07T02:12:07;9.90;99.90
46590;DHT22;32313;48.722;9.362;2023-05-07T02:14:33;9.80;99.90
46590;DHT22;32313;48.722;9.362;2023-05-07T02:16:58;9.80;99.90
46590;DHT22;32313;48.722;9.362;2023-05-07T02:19:24;9.80;99.90
46590;DHT22;32313;48.722;9.362;2023-05-07T02:21:50;9.80;99.90
46590;DHT22;32313;48.722;9.362;2023-05-07T02:24:16;9.70;99.90
46590;DHT22;32313;48.722;9.362;2023-05-07T02:26:42;9.70;99.90
46590;DHT22;32313;48.722;9.362;2023-05-07T02:29:08;9.70;99.90
46590;DHT22;32313;48.722;9.362;2023-05-07T02:31:34;9.70;99.90
46590;DHT22;32313;48.722;9.362;2023-05-07T02:34:00;9.70;99.90
46590;DHT22;32313;48.722;9.362;2023-05-07T02:36:26;9.70;99.90
46590;DHT22;32313;48.722;9.362;2023-05-07T02:39:06;9.60;99.90
46590;DHT22;32313;48.722;9.362;2023-05-07T02:41:31;9.50;99.90
46590;DHT22;32313;48.722;9.362;2023-05-07T02:43:57;9.50;99.90
46590;DHT22;32313;48.722;9.362;2023-05-07T02:46:23;9.40;99.90
46590;DHT22;32313;48.722;9.362;2023-05-07T02:48:57;9.40;99.90
46590;DHT22;32313;48.722;9.362;2023-05-07T02:51:23;9.30;99.90
46590;DHT22;32313;48.722;9.362;2023-05-07T02:53:50;9.30;99.90
46590;DHT22;32313;48.722;9.362;2023-05-07T02:56:15;9.20;99.90
46590;DHT22;32313;48.722;9.362;2023-05-07T02:58:41;9.20;99.90
46590;DHT22;32313;48.722;9.362;2023-05-07T03:01:11;9.10;99.90
46590;DHT22;32313;48.722;9.362;2023-05-07T03:03:56;9.00;99.90
46590;DHT22;32313;48.722;9.362;2023-05-07T03:06:22;9.00;99.90
46590;DHT22;32313;48.722;9.362;2023-05-07T03:08:47;9.00;99.90
46590;DHT22;32313;48.722;9.362;2023-05-07T03:11:13;9.00;99.90
46590;DHT22;32313;48.722;9.362;2023-05-07T03:13:39;9.00;99.90
46590;DHT22;32313;48.722;9.362;2023-05-07T03:16:04;9.00;99.90
46590;DHT22;32313;48.722;9.362;2023-05-07T03:18:30;8.90;99.90
46590;DHT22;32313;48.722;9.362;2023-05-07T03:20:56;8.80;99.90
46590;DHT22;32313;48.722;9.362;2023-05-07T03:23:22;8.80;99.90
46590;DHT22;32313;48.722;9.362;2023-05-07T03:25:48;8.80;99.90
46590;DHT22;32313;48.722;9.362;2023-05-07T03:28:14;8.80;99.90
46590;DHT22;32313;48.722;9.362;2023-05-07T03:30:46;8.70;99.90
46590;DHT22;32313;48.722;9.362;2023-05-07T03:33:12;8.70;99.90
46590;DHT22;32313;48.722;9.362;2023-05-07T03:35:38;8.70;99.90
46590;DHT22;32313;48.722;9.362;2023-05-07T03:38:04;8.70;99.90
46590;DHT22;32313;48.722;9.362;2023-05-07T03:40:34;8.60;99.90
46590;DHT22;32313;48.722;9.362;2023-05-07T03:43:01;8.60;99.90
46590;DHT22;32313;48.722;9.362;2023-05-07T03:45:29;8.50;99.90
46590;DHT22;32313;48.722;9.362;2023-05-07T03:48:14;8.50;99.90
46590;DHT22;32313;48.722;9.362;2023-05-07T03:50:40;8.50;99.90
46590;DHT22;32313;48.722;9.362;2023-05-07T03:53:06;8.50;99.90
46590;DHT22;32313;48.722;9.362;2023-05-07T03:55:36;8.50;99.90
46590;DHT22;32313;48.722;9.362;2023-05-07T03:58:02;8.50;99.90
46590;DHT22;32313;48.722;9.362;2023-05-07T04:00:28;8.50;99.90
46590;DHT22;32313;48.722;9.362;2023-05-07T04:02:57;8.50;99.90
46590;DHT22;32313;48.722;9.362;2023-05-07T04:05:25;8.50;99.90
46590;DHT22;32313;48.722;9.362;2023-05-07T04:07:58;8.50;99.90
46590;DHT22;32313;48.722;9.362;2023-05-07T04:10:31;8.60;99.90
46590;DHT22;32313;48.722;9.362;2023-05-07T04:12:58;8.70;99.90
46590;DHT22;32313;48.722;9.362;2023-05-07T04:15:25;8.70;99.90
46590;DHT22;32313;48.722;9.362;2023-05-07T04:17:51;8.60;99.90
46590;DHT22;32313;48.722;9.362;2023-05-07T04:20:19;8.60;99.90
46590;DHT22;32313;48.722;9.362;2023-05-07T04:22:50;8.60;99.90
46590;DHT22;32313;48.722;9.362;2023-05-07T04:25:16;8.60;99.90
46590;DHT22;32313;48.722;9.362;2023-05-07T04:27:42;8.60;99.90
46590;DHT22;32313;48.722;9.362;2023-05-07T04:30:08;8.60;99.90
46590;DHT22;32313;48.722;9.362;2023-05-07T04:32:38;8.60;99.90
46590;DHT22;32313;48.722;9.362;2023-05-07T04:35:05;8.70;99.90
46590;DHT22;32313;48.722;9.362;2023-05-07T04:37:32;8.80;99.90
46590;DHT22;32313;48.722;9.362;2023-05-07T04:39:58;8.80;99.90
46590;DHT22;32313;48.722;9.362;2023-05-07T04:42:24;8.90;99.90
46590;DHT22;32313;48.722;9.362;2023-05-07T04:44:52;8.90;99.90
46590;DHT22;32313;48.722;9.362;2023-05-07T04:47:19;9.00;99.90
46590;DHT22;32313;48.722;9.362;2023-05-07T04:49:45;9.00;99.90
46590;DHT22;32313;48.722;9.362;2023-05-07T04:52:11;9.00;99.90
46590;DHT22;32313;48.722;9.362;2023-05-07T04:54:37;9.00;99.90
46590;DHT22;32313;48.722;9.362;2023-05-07T04:57:04;8.90;99.90
46590;DHT22;32313;48.722;9.362;2023-05-07T04:59:32;8.90;99.90
46590;DHT22;32313;48.722;9.362;2023-05-07T05:01:58;8.90;99.90
46590;DHT22;32313;48.722;9.362;2023-05-07T05:04:24;8.90;99.90
46590;DHT22;32313;48.722;9.362;2023-05-07T05:06:50;8.90;99.90
46590;DHT22;32313;48.722;9.362;2023-05-07T05:09:16;9.00;99.90
46590;DHT22;32313;48.722;9.362;2023-05-07T05:11:42;9.10;99.90
46590;DHT22;32313;48.722;9.362;2023-05-07T05:14:07;9.10;99.90
46590;DHT22;32313;48.722;9.362;2023-05-07T05:16:33;9.10;99.90
46590;DHT22;32313;48.722;9.362;2023-05-07T05:18:59;9.20;99.90
46590;DHT22;32313;48.722;9.362;2023-05-07T05:21:25;9.20;99.90
46590;DHT22;32313;48.722;9.362;2023-05-07T05:23:55;9.20;99.90
46590;DHT22;32313;48.722;9.362;2023-05-07T05:26:24;9.20;99.90
46590;DHT22;32313;48.722;9.362;2023-05-07T05:28:49;9.30;99.90
46590;DHT22;32313;48.722;9.362;2023-05-07T05:31:18;9.40;99.90
46590;DHT22;32313;48.722;9.362;2023-05-07T05:33:43;9.50;99.90
46590;DHT22;32313;48.722;9.362;2023-05-07T05:36:10;9.70;99.90
46590;DHT22;32313;48.722;9.362;2023-05-07T05:38:37;9.90;99.90
46590;DHT22;32313;48.722;9.362;2023-05-07T05:41:03;10.10;99.90
46590;DHT22;32313;48.722;9.362;2023-05-07T05:43:29;10.30;99.90
46590;DHT22;32313;48.722;9.362;2023-05-07T05:45:56;10.50;99.90
46590;DHT22;32313;48.722;9.362;2023-05-07T05:48:22;10.70;99.90
46590;DHT22;32313;48.722;9.362;2023-05-07T05:50:48;10.90;99.90
46590;DHT22;32313;48.722;9.362;2023-05-07T05:53:16;11.10;99.90
46590;DHT22;32313;48.722;9.362;2023-05-07T05:55:42;11.20;99.90
46590;DHT22;32313;48.722;9.362;2023-05-07T05:58:09;11.40;99.90
46590;DHT22;32313;48.722;9.362;2023-05-07T06:00:39;11.60;99.90
46590;DHT22;32313;48.722;9.362;2023-05-07T06:03:06;11.80;99.90
46590;DHT22;32313;48.722;9.362;2023-05-07T06:05:32;12.00;99.90
46590;DHT22;32313;48.722;9.362;2023-05-07T06:07:57;12.20;99.90
46590;DHT22;32313;48.722;9.362;2023-05-07T06:10:25;12.60;99.90
46590;DHT22;32313;48.722;9.362;2023-05-07T06:12:52;12.80;99.90
46590;DHT22;32313;48.722;9.362;2023-05-07T06:15:19;13.00;99.90
46590;DHT22;32313;48.722;9.362;2023-05-07T06:17:45;13.20;99.90
46590;DHT22;32313;48.722;9.362;2023-05-07T06:20:11;13.40;99.90
46590;DHT22;32313;48.722;9.362;2023-05-07T06:22:38;13.60;99.90
46590;DHT22;32313;48.722;9.362;2023-05-07T06:25:04;13.70;99.90
46590;DHT22;32313;48.722;9.362;2023-05-07T06:27:30;14.00;99.90
46590;DHT22;32313;48.722;9.362;2023-05-07T06:29:57;14.20;99.90
46590;DHT22;32313;48.722;9.362;2023-05-07T06:32:22;14.50;99.90
46590;DHT22;32313;48.722;9.362;2023-05-07T06:34:49;14.70;99.90
46590;DHT22;32313;48.722;9.362;2023-05-07T06:37:15;14.90;99.90
46590;DHT22;32313;48.722;9.362;2023-05-07T06:40:01;15.20;99.90
46590;DHT22;32313;48.722;9.362;2023-05-07T06:42:29;15.50;99.90
46590;DHT22;32313;48.722;9.362;2023-05-07T06:44:58;15.80;99.90
46590;DHT22;32313;48.722;9.362;2023-05-07T06:47:25;16.00;99.90
46590;DHT22;32313;48.722;9.362;2023-05-07T06:49:53;16.30;99.90
46590;DHT22;32313;48.722;9.362;2023-05-07T06:52:22;16.40;99.90
46590;DHT22;32313;48.722;9.362;2023-05-07T06:54:49;16.50;99.90
46590;DHT22;32313;48.722;9.362;2023-05-07T06:57:17;16.50;99.90
46590;DHT22;32313;48.722;9.362;2023-05-07T06:59:43;16.70;99.90
46590;DHT22;32313;48.722;9.362;2023-05-07T07:02:09;16.90;99.90
46590;DHT22;32313;48.722;9.362;2023-05-07T07:04:35;17.00;99.90
46590;DHT22;32313;48.722;9.362;2023-05-07T07:07:05;17.10;99.90
46590;DHT22;32313;48.722;9.362;2023-05-07T07:09:31;17.70;99.90
46590;DHT22;32313;48.722;9.362;2023-05-07T07:11:58;18.60;99.90
46590;DHT22;32313;48.722;9.362;2023-05-07T07:14:23;19.50;99.90
46590;DHT22;32313;48.722;9.362;2023-05-07T07:16:51;20.10;99.90
46590;DHT22;32313;48.722;9.362;2023-05-07T07:19:18;20.60;99.90
46590;DHT22;32313;48.722;9.362;2023-05-07T07:21:47;21.30;99.90
46590;DHT22;32313;48.722;9.362;2023-05-07T07:24:14;21.60;99.90
46590;DHT22;32313;48.722;9.362;2023-05-07T07:26:45;22.10;99.90
46590;DHT22;32313;48.722;9.362;2023-05-07T07:29:11;22.40;99.90
46590;DHT22;32313;48.722;9.362;2023-05-07T07:31:38;22.40;99.90
46590;DHT22;32313;48.722;9.362;2023-05-07T07:34:04;22.60;99.90
46590;DHT22;32313;48.722;9.362;2023-05-07T07:36:29;22.50;99.90
46590;DHT22;32313;48.722;9.362;2023-05-07T07:38:55;22.80;99.90
46590;DHT22;32313;48.722;9.362;2023-05-07T07:41:21;23.50;99.90
46590;DHT22;32313;48.722;9.362;2023-05-07T07:43:47;24.10;99.90
46590;DHT22;32313;48.722;9.362;2023-05-07T07:46:13;24.80;99.90
46590;DHT22;32313;48.722;9.362;2023-05-07T07:48:39;25.00;99.90
46590;DHT22;32313;48.722;9.362;2023-05-07T07:51:04;25.20;99.90
46590;DHT22;32313;48.722;9.362;2023-05-07T07:53:31;25.60;99.90
46590;DHT22;32313;48.722;9.362;2023-05-07T07:55:57;26.00;99.90
46590;DHT22;32313;48.722;9.362;2023-05-07T07:58:25;26.00;99.90
46590;DHT22;32313;48.722;9.362;2023-05-07T08:00:51;26.00;99.90
46590;DHT22;32313;48.722;9.362;2023-05-07T08:03:17;26.50;99.90
46590;DHT22;32313;48.722;9.362;2023-05-07T08:05:46;26.70;99.90
46590;DHT22;32313;48.722;9.362;2023-05-07T08:08:12;26.50;99.90
46590;DHT22;32313;48.722;9.362;2023-05-07T08:10:39;26.50;99.90
46590;DHT22;32313;48.722;9.362;2023-05-07T08:13:12;26.30;99.90
46590;DHT22;32313;48.722;9.362;2023-05-07T08:15:39;26.20;99.90
46590;DHT22;32313;48.722;9.362;2023-05-07T08:18:05;26.10;99.90
46590;DHT22;32313;48.722;9.362;2023-05-07T08:20:32;26.00;99.90
46590;DHT22;32313;48.722;9.362;2023-05-07T08:22:59;26.20;99.90
46590;DHT22;32313;48.722;9.362;2023-05-07T08:25:26;26.50;99.10
46590;DHT22;32313;48.722;9.362;2023-05-07T08:27:52;26.20;98.60
46590;DHT22;32313;48.722;9.362;2023-05-07T08:30:18;26.20;98.80
46590;DHT22;32313;48.722;9.362;2023-05-07T08:32:44;26.50;99.20
46590;DHT22;32313;48.722;9.362;2023-05-07T08:35:09;27.00;97.50
46590;DHT22;32313;48.722;9.362;2023-05-07T08:37:35;27.20;96.50
46590;DHT22;32313;48.722;9.362;2023-05-07T08:40:01;27.40;96.40
46590;DHT22;32313;48.722;9.362;2023-05-07T08:42:35;27.50;96.10
46590;DHT22;32313;48.722;9.362;2023-05-07T08:45:02;28.00;96.20
46590;DHT22;32313;48.722;9.362;2023-05-07T08:47:38;28.00;95.00
46590;DHT22;32313;48.722;9.362;2023-05-07T08:50:06;28.20;94.00
46590;DHT22;32313;48.722;9.362;2023-05-07T08:52:32;28.70;94.30
46590;DHT22;32313;48.722;9.362;2023-05-07T08:54:59;29.40;93.80
46590;DHT22;32313;48.722;9.362;2023-05-07T08:57:25;29.80;92.50
46590;DHT22;32313;48.722;9.362;2023-05-07T08:59:52;29.60;90.50
46590;DHT22;32313;48.722;9.362;2023-05-07T09:02:18;29.40;90.60
46590;DHT22;32313;48.722;9.362;2023-05-07T09:04:44;28.90;91.00
46590;DHT22;32313;48.722;9.362;2023-05-07T09:07:10;28.80;91.70
46590;DHT22;32313;48.722;9.362;2023-05-07T09:09:40;28.50;91.50
46590;DHT22;32313;48.722;9.362;2023-05-07T09:12:07;28.60;91.50
46590;DHT22;32313;48.722;9.362;2023-05-07T09:14:34;29.00;88.70
46590;DHT22;32313;48.722;9.362;2023-05-07T09:17:01;29.50;90.10
46590;DHT22;32313;48.722;9.362;2023-05-07T09:19:27;29.50;90.00
46590;DHT22;32313;48.722;9.362;2023-05-07T09:22:02;29.40;85.40
46590;DHT22;32313;48.722;9.362;2023-05-07T09:24:35;28.90;85.40
46590;DHT22;32313;48.722;9.362;2023-05-07T09:27:05;28.90;87.30
46590;DHT22;32313;48.722;9.362;2023-05-07T09:29:32;28.90;87.20
46590;DHT22;32313;48.722;9.362;2023-05-07T09:32:06;29.10;88.90
46590;DHT22;32313;48.722;9.362;2023-05-07T09:34:33;29.60;85.60
46590;DHT22;32313;48.722;9.362;2023-05-07T09:37:04;29.20;85.20
46590;DHT22;32313;48.722;9.362;2023-05-07T09:39:44;29.30;82.80
46590;DHT22;32313;48.722;9.362;2023-05-07T09:42:11;28.90;81.60
46590;DHT22;32313;48.722;9.362;2023-05-07T09:44:38;29.10;82.50
46590;DHT22;32313;48.722;9.362;2023-05-07T09:47:08;29.10;82.60
46590;DHT22;32313;48.722;9.362;2023-05-07T09:49:39;28.90;81.80
46590;DHT22;32313;48.722;9.362;2023-05-07T09:52:10;29.30;85.00
46590;DHT22;32313;48.722;9.362;2023-05-07T09:54:40;30.00;82.40
46590;DHT22;32313;48.722;9.362;2023-05-07T09:57:11;29.80;81.20
46590;DHT22;32313;48.722;9.362;2023-05-07T09:59:40;29.80;79.50
46590;DHT22;32313;48.722;9.362;2023-05-07T10:02:10;29.80;81.10
46590;DHT22;32313;48.722;9.362;2023-05-07T10:04:44;29.90;80.20
46590;DHT22;32313;48.722;9.362;2023-05-07T10:07:10;30.20;78.80
46590;DHT22;32313;48.722;9.362;2023-05-07T10:09:36;30.40;77.40
46590;DHT22;32313;48.722;9.362;2023-05-07T10:12:06;30.30;78.30
46590;DHT22;32313;48.722;9.362;2023-05-07T10:14:33;30.40;78.00
46590;DHT22;32313;48.722;9.362;2023-05-07T10:17:00;30.40;78.50
46590;DHT22;32313;48.722;9.362;2023-05-07T10:19:28;30.30;80.20
46590;DHT22;32313;48.722;9.362;2023-05-07T10:22:01;30.20;77.30
46590;DHT22;32313;48.722;9.362;2023-05-07T10:24:32;30.10;77.30
46590;DHT22;32313;48.722;9.362;2023-05-07T10:27:01;30.20;76.60
46590;DHT22;32313;48.722;9.362;2023-05-07T10:29:49;29.80;75.40
46590;DHT22;32313;48.722;9.362;2023-05-07T10:32:42;29.50;75.10
46590;DHT22;32313;48.722;9.362;2023-05-07T10:35:19;29.50;76.60
46590;DHT22;32313;48.722;9.362;2023-05-07T10:37:48;30.00;73.50
46590;DHT22;32313;48.722;9.362;2023-05-07T10:40:14;30.00;72.60
46590;DHT22;32313;48.722;9.362;2023-05-07T10:42:55;30.20;72.30
46590;DHT22;32313;48.722;9.362;2023-05-07T10:45:22;30.30;73.60
46590;DHT22;32313;48.722;9.362;2023-05-07T10:50:36;30.00;73.90
46590;DHT22;32313;48.722;9.362;2023-05-07T10:58:49;31.80;72.20
46590;DHT22;32313;48.722;9.362;2023-05-07T11:04:37;32.10;68.10
46590;DHT22;32313;48.722;9.362;2023-05-07T11:07:24;32.50;69.00
46590;DHT22;32313;48.722;9.362;2023-05-07T11:17:58;31.00;65.60
46590;DHT22;32313;48.722;9.362;2023-05-07T11:26:24;32.10;64.00
46590;DHT22;32313;48.722;9.362;2023-05-07T11:28:51;32.60;64.10
46590;DHT22;32313;48.722;9.362;2023-05-07T11:31:23;32.90;63.00
46590;DHT22;32313;48.722;9.362;2023-05-07T11:33:50;32.60;60.80
46590;DHT22;32313;48.722;9.362;2023-05-07T11:36:22;31.80;63.50
46590;DHT22;32313;48.722;9.362;2023-05-07T11:38:50;31.50;65.30
46590;DHT22;32313;48.722;9.362;2023-05-07T11:41:16;31.70;62.30
46590;DHT22;32313;48.722;9.362;2023-05-07T11:43:56;31.60;61.00
46590;DHT22;32313;48.722;9.362;2023-05-07T11:46:22;32.20;61.00
46590;DHT22;32313;48.722;9.362;2023-05-07T11:48:48;32.70;60.70
46590;DHT22;32313;48.722;9.362;2023-05-07T11:51:19;32.60;59.10
46590;DHT22;32313;48.722;9.362;2023-05-07T11:53:45;32.30;59.10
46590;DHT22;32313;48.722;9.362;2023-05-07T11:56:12;31.40;60.50
46590;DHT22;32313;48.722;9.362;2023-05-07T11:58:41;30.30;62.50
46590;DHT22;32313;48.722;9.362;2023-05-07T12:01:12;29.50;64.60
46590;DHT22;32313;48.722;9.362;2023-05-07T12:03:40;29.00;65.70
46590;DHT22;32313;48.722;9.362;2023-05-07T12:06:09;28.60;67.40
46590;DHT22;32313;48.722;9.362;2023-05-07T12:08:37;28.30;68.20
46590;DHT22;32313;48.722;9.362;2023-05-07T12:11:08;28.00;68.80
46590;DHT22;32313;48.722;9.362;2023-05-07T12:13:35;27.80;68.90
46590;DHT22;32313;48.722;9.362;2023-05-07T12:16:01;27.60;68.70
46590;DHT22;32313;48.722;9.362;2023-05-07T12:18:28;27.30;69.30
46590;DHT22;32313;48.722;9.362;2023-05-07T12:20:55;27.20;70.10
46590;DHT22;32313;48.722;9.362;2023-05-07T12:23:22;27.10;71.90
46590;DHT22;32313;48.722;9.362;2023-05-07T12:25:48;27.00;72.60
46590;DHT22;32313;48.722;9.362;2023-05-07T12:28:18;26.60;71.40
46590;DHT22;32313;48.722;9.362;2023-05-07T12:30:45;26.20;72.00
46590;DHT22;32313;48.722;9.362;2023-05-07T12:33:12;26.00;73.20
46590;DHT22;32313;48.722;9.362;2023-05-07T12:35:42;25.70;74.70
46590;DHT22;32313;48.722;9.362;2023-05-07T12:38:09;25.50;75.40
46590;DHT22;32313;48.722;9.362;2023-05-07T12:40:38;25.10;76.30
46590;DHT22;32313;48.722;9.362;2023-05-07T12:43:03;24.70;75.90
46590;DHT22;32313;48.722;9.362;2023-05-07T12:45:29;24.20;77.30
46590;DHT22;32313;48.722;9.362;2023-05-07T12:47:55;23.70;79.10
46590;DHT22;32313;48.722;9.362;2023-05-07T12:50:21;23.30;80.90
46590;DHT22;32313;48.722;9.362;2023-05-07T12:52:47;22.90;82.20
46590;DHT22;32313;48.722;9.362;2023-05-07T12:55:17;22.60;83.60
46590;DHT22;32313;48.722;9.362;2023-05-07T12:57:45;22.20;84.70
46590;DHT22;32313;48.722;9.362;2023-05-07T13:00:13;21.90;85.50
46590;DHT22;32313;48.722;9.362;2023-05-07T13:02:41;21.70;86.50
46590;DHT22;32313;48.722;9.362;2023-05-07T13:05:07;21.40;89.10
46590;DHT22;32313;48.722;9.362;2023-05-07T13:07:33;20.90;90.80
46590;DHT22;32313;48.722;9.362;2023-05-07T13:09:59;20.20;94.20
46590;DHT22;32313;48.722;9.362;2023-05-07T13:12:25;19.10;97.00
46590;DHT22;32313;48.722;9.362;2023-05-07T13:14:50;18.30;99.40
46590;DHT22;32313;48.722;9.362;2023-05-07T13:17:16;17.90;99.90
46590;DHT22;32313;48.722;9.362;2023-05-07T13:19:42;17.70;99.90
46590;DHT22;32313;48.722;9.362;2023-05-07T13:22:07;17.60;99.90
46590;DHT22;32313;48.722;9.362;2023-05-07T13:24:33;17.40;99.90
46590;DHT22;32313;48.722;9.362;2023-05-07T13:26:59;17.40;99.90
46590;DHT22;32313;48.722;9.362;2023-05-07T13:29:24;17.30;99.90
46590;DHT22;32313;48.722;9.362;2023-05-07T13:31:58;17.20;99.90
46590;DHT22;32313;48.722;9.362;2023-05-07T13:34:24;17.10;99.90
46590;DHT22;32313;48.722;9.362;2023-05-07T13:36:49;17.00;99.90
46590;DHT22;32313;48.722;9.362;2023-05-07T13:39:15;17.00;99.90
46590;DHT22;32313;48.722;9.362;2023-05-07T13:41:41;16.90;99.90
46590;DHT22;32313;48.722;9.362;2023-05-07T13:44:07;16.80;99.90
46590;DHT22;32313;48.722;9.362;2023-05-07T13:46:32;16.60;99.90
46590;DHT22;32313;48.722;9.362;2023-05-07T13:48:58;16.50;99.90
46590;DHT22;32313;48.722;9.362;2023-05-07T13:51:24;16.40;99.90
46590;DHT22;32313;48.722;9.362;2023-05-07T13:53:49;16.30;99.90
46590;DHT22;32313;48.722;9.362;2023-05-07T13:56:15;16.10;99.90
46590;DHT22;32313;48.722;9.362;2023-05-07T13:58:41;15.90;99.90
46590;DHT22;32313;48.722;9.362;2023-05-07T14:01:07;15.80;99.90
46590;DHT22;32313;48.722;9.362;2023-05-07T14:03:32;15.60;99.90
46590;DHT22;32313;48.722;9.362;2023-05-07T14:05:59;15.50;99.90
46590;DHT22;32313;48.722;9.362;2023-05-07T14:08:27;15.50;99.90
46590;DHT22;32313;48.722;9.362;2023-05-07T14:10:53;15.40;99.90
46590;DHT22;32313;48.722;9.362;2023-05-07T14:13:18;15.30;99.90
46590;DHT22;32313;48.722;9.362;2023-05-07T14:15:44;15.20;99.90
46590;DHT22;32313;48.722;9.362;2023-05-07T14:18:12;15.20;99.90
46590;DHT22;32313;48.722;9.362;2023-05-07T14:20:38;15.10;99.90
46590;DHT22;32313;48.722;9.362;2023-05-07T14:23:04;15.10;99.90
46590;DHT22;32313;48.722;9.362;2023-05-07T14:25:30;15.10;99.90
46590;DHT22;32313;48.722;9.362;2023-05-07T14:27:55;15.10;99.90
46590;DHT22;32313;48.722;9.362;2023-05-07T14:30:21;14.90;99.90
46590;DHT22;32313;48.722;9.362;2023-05-07T14:32:50;14.80;99.90
46590;DHT22;32313;48.722;9.362;2023-05-07T14:35:16;14.70;99.90
46590;DHT22;32313;48.722;9.362;2023-05-07T14:37:42;14.60;99.90
46590;DHT22;32313;48.722;9.362;2023-05-07T14:40:09;14.50;99.90
46590;DHT22;32313;48.722;9.362;2023-05-07T14:42:35;14.50;99.90
46590;DHT22;32313;48.722;9.362;2023-05-07T14:45:01;14.40;99.90
46590;DHT22;32313;48.722;9.362;2023-05-07T14:47:26;14.40;99.90
46590;DHT22;32313;48.722;9.362;2023-05-07T14:49:52;14.30;99.90
46590;DHT22;32313;48.722;9.362;2023-05-07T14:52:18;14.30;99.90
46590;DHT22;32313;48.722;9.362;2023-05-07T14:54:44;14.20;99.90
46590;DHT22;32313;48.722;9.362;2023-05-07T14:57:11;14.20;99.90
46590;DHT22;32313;48.722;9.362;2023-05-07T14:59:39;14.20;99.90
46590;DHT22;32313;48.722;9.362;2023-05-07T15:02:05;14.10;99.90
46590;DHT22;32313;48.722;9.362;2023-05-07T15:04:33;14.10;99.90
46590;DHT22;32313;48.722;9.362;2023-05-07T15:06:59;14.10;99.90
46590;DHT22;32313;48.722;9.362;2023-05-07T15:09:26;14.10;99.90
46590;DHT22;32313;48.722;9.362;2023-05-07T15:11:51;14.00;99.90
46590;DHT22;32313;48.722;9.362;2023-05-07T15:14:17;14.00;99.90
46590;DHT22;32313;48.722;9.362;2023-05-07T15:16:43;14.00;99.90
46590;DHT22;32313;48.722;9.362;2023-05-07T15:19:09;14.00;99.90
46590;DHT22;32313;48.722;9.362;2023-05-07T15:21:35;14.10;99.90
46590;DHT22;32313;48.722;9.362;2023-05-07T15:24:02;14.10;99.90
46590;DHT22;32313;48.722;9.362;2023-05-07T15:26:28;14.20;99.90
46590;DHT22;32313;48.722;9.362;2023-05-07T15:28:54;14.30;99.90
46590;DHT22;32313;48.722;9.362;2023-05-07T15:31:25;14.30;99.90
46590;DHT22;32313;48.722;9.362;2023-05-07T15:33:51;14.30;99.90
46590;DHT22;32313;48.722;9.362;2023-05-07T15:36:20;14.30;99.90
46590;DHT22;32313;48.722;9.362;2023-05-07T15:38:46;14.30;99.90
46590;DHT22;32313;48.722;9.362;2023-05-07T15:41:11;14.40;99.90
46590;DHT22;32313;48.722;9.362;2023-05-07T15:43:45;14.40;99.90
46590;DHT22;32313;48.722;9.362;2023-05-07T15:46:11;14.30;99.90
46590;DHT22;32313;48.722;9.362;2023-05-07T15:48:37;14.30;99.90
46590;DHT22;32313;48.722;9.362;2023-05-07T15:51:03;14.40;99.90
46590;DHT22;32313;48.722;9.362;2023-05-07T15:53:30;14.40;99.90
46590;DHT22;32313;48.722;9.362;2023-05-07T15:55:55;14.50;99.90
46590;DHT22;32313;48.722;9.362;2023-05-07T15:58:21;14.60;99.90
46590;DHT22;32313;48.722;9.362;2023-05-07T16:00:47;14.60;99.90
46590;DHT22;32313;48.722;9.362;2023-05-07T16:03:13;14.70;99.90